Open Full Screen Window  High Contrast Mode
Wind Gusting 00 knots
03
May 29, 2017 9:06 AM EDT
Weather Information
Wind Direction
  270 °
Wind Speed
  03 kt (3 mph)
Wind Gust
  00 kt (0 mph)
Altimeter
29.81 in
Visibility
10 SM
Temperature
18° C
64° F
Dewpoint
13° C
55° F
Humidity
73%
1hr Rain Fall
00.00 in.
24hr Rain Fall
00.34 in.
Sky Condition
Clear
VFR

METAR KONZ 291306Z AUTO 27003KT 10SM CLR 18/13 A2981 RMK AO2 T01840132

*Background is not an actual portrayal of the airport.